Portada
METAR-TAF:

METAR-TAF

Aeroports :

Pattaya-Rayong, Tailàndia

latitud: 12-38N, longitud: 101-21E, altitud: 3 m

Observació

L'informe es va fer fa 35 minuts, a les 21:00 UTC
Vent 5 kt del Nord
Temperatura 21°C
Humitat 73%
Pressió 1012 hPa
Visibilitat: 6000 m

METAR: VTBU 112100Z 35005KT 6000 NSC 21/16 Q1012 NOSIG

Hora: 04:35 (21:35 UTC)

Pronòstic

L'informe es va fer fa 4 hores i 35 minuts, a les 17:00 UTC
Pronòstic vàlid del 11 a les 18 UTC al 12 a les 18 UTC
Vent 4 kt del Nord
Visibilitat: 6000 m
Evolucionant progressivament
l' 12 a les 04 UTC al 12 a les 06 UTC
Vent 8 kt del Sud
Visibilitat: 8000 m
Escasses núvols a una alçada de 2500 ft
Evolucionant progressivament
l' 12 a les 13 UTC al 12 a les 15 UTC
Vent 6 kt del Nord

TAF: VTBU 111700Z 1118/1218 35004KT 6000 NSC BECMG 1204/1206 18008KT 8000 FEW025 BECMG 1213/1215 01006KT NSC

Observacions i pronòstics meteorològics de més de 4000 aeroports (METAR i TAF).

Les estacions disponibles són els punts grocs i vermells al mapa.

Posi el ratolí al punt desitjat per veure el nom de l'estació.

Feu clic per veure les observacions i els pronòstics meteorològics.

Per canviar el mapa: feu clic els botons verds amb una creu de color negre per apropar; al botó verd amb un guió per allunyar la imatge; o en les fletxes verdes per a mapes adjacents.


METAR-TAF: